Time;durP1;ratioP1;P1;durP2;ratioP2;P2;SDS_P1;SDS_P2;PMS_P1;PMS_P2;Temp;Humidity;BMP_temperature;BMP_pressure;BME280_temperature;BME280_humidity;BME280_pressure;Samples;Min_cycle;Max_cycle;Signal;HPM_P1;HPM_P2
2022/06/15 00:00:58;;;;;;;5.07;4.53;;;14.30;99.90;;;;;;4992975;28;20845;-69
2022/06/15 00:03:26;;;;;;;4.80;3.80;;;14.30;99.90;;;;;;4993423;28;20833;-69
2022/06/15 00:06:04;;;;;;;4.17;3.77;;;14.20;99.90;;;;;;4993237;28;20814;-69
2022/06/15 00:08:31;;;;;;;5.20;4.80;;;14.20;99.90;;;;;;4993171;28;20512;-69
2022/06/15 00:10:58;;;;;;;5.93;4.47;;;14.10;99.90;;;;;;4992862;28;20462;-69
2022/06/15 00:13:28;;;;;;;5.03;4.23;;;14.10;99.90;;;;;;4993412;28;20470;-67
2022/06/15 00:15:54;;;;;;;5.10;4.20;;;14.10;99.90;;;;;;4993127;28;20501;-69
2022/06/15 00:18:21;;;;;;;4.03;3.63;;;14.00;99.90;;;;;;4993264;28;20469;-69
2022/06/15 00:20:48;;;;;;;5.10;4.60;;;14.00;99.90;;;;;;4992287;28;20615;-69
2022/06/15 00:23:16;;;;;;;5.23;3.90;;;14.00;99.90;;;;;;4993099;28;20474;-69
2022/06/15 00:25:43;;;;;;;5.13;4.00;;;14.00;99.90;;;;;;4992899;28;20473;-67
2022/06/15 00:28:10;;;;;;;5.23;3.93;;;14.00;99.90;;;;;;4992849;28;20513;-68
2022/06/15 00:30:36;;;;;;;4.47;3.93;;;14.00;99.90;;;;;;4992498;28;20469;-68
2022/06/15 00:33:03;;;;;;;5.13;4.13;;;13.90;99.90;;;;;;4992741;28;20462;-69
2022/06/15 00:35:30;;;;;;;5.20;4.50;;;13.90;99.90;;;;;;4993060;28;20863;-69
2022/06/15 00:37:56;;;;;;;4.13;3.80;;;13.80;99.90;;;;;;4992337;28;20486;-67
2022/06/15 00:40:24;;;;;;;4.17;3.77;;;13.80;99.90;;;;;;4992326;28;20473;-68
2022/06/15 00:42:51;;;;;;;4.50;4.10;;;13.80;99.90;;;;;;4992674;28;20466;-69
2022/06/15 00:45:18;;;;;;;6.87;4.37;;;13.70;99.90;;;;;;4992555;28;20462;-69
2022/06/15 00:47:46;;;;;;;6.20;3.37;;;13.70;99.90;;;;;;4992393;28;21024;-69
2022/06/15 00:50:17;;;;;;;7.43;4.53;;;13.70;99.90;;;;;;4991802;28;20466;-68
2022/06/15 00:52:50;;;;;;;5.23;4.73;;;13.70;99.90;;;;;;4992438;28;20466;-69
2022/06/15 00:55:19;;;;;;;5.33;4.20;;;13.60;99.90;;;;;;4992466;28;20847;-68
2022/06/15 00:57:48;;;;;;;4.00;3.60;;;13.60;99.90;;;;;;4991326;28;20493;-68
2022/06/15 01:00:16;;;;;;;4.97;4.50;;;13.60;99.90;;;;;;4991934;28;20466;-68
2022/06/15 01:02:43;;;;;;;5.10;4.60;;;13.60;99.90;;;;;;4991927;28;20466;-68
2022/06/15 01:05:13;;;;;;;5.87;4.77;;;13.50;99.90;;;;;;4992196;28;20462;-67
2022/06/15 01:07:58;;;;;;;5.57;4.40;;;13.50;99.90;;;;;;4991516;28;20557;-68
2022/06/15 01:10:38;;;;;;;5.27;4.50;;;13.50;99.90;;;;;;4991778;28;20472;-67
2022/06/15 01:13:22;;;;;;;4.83;4.00;;;13.40;99.90;;;;;;4992079;28;20462;-69
2022/06/15 01:15:59;;;;;;;5.07;4.57;;;13.40;99.90;;;;;;4992285;28;20858;-69
2022/06/15 01:18:34;;;;;;;6.57;3.73;;;13.40;99.90;;;;;;4992126;28;20469;-68
2022/06/15 01:21:10;;;;;;;5.27;4.13;;;13.30;99.90;;;;;;4991284;28;20862;-69
2022/06/15 01:24:08;;;;;;;4.30;3.90;;;13.30;99.90;;;;;;4991794;28;20481;-68
2022/06/15 01:26:59;;;;;;;4.40;4.00;;;13.30;99.90;;;;;;4991299;28;20482;-68
2022/06/15 01:29:52;;;;;;;4.50;4.10;;;13.30;99.90;;;;;;4991216;28;20485;-68
2022/06/15 01:32:28;;;;;;;4.80;4.20;;;13.20;99.90;;;;;;4978731;28;20473;-68
2022/06/15 01:35:05;;;;;;;4.83;4.30;;;13.20;99.90;;;;;;4991665;28;20983;-69
2022/06/15 01:37:40;;;;;;;4.20;3.80;;;13.20;99.90;;;;;;4991517;28;20485;-68
2022/06/15 01:40:13;;;;;;;5.33;4.00;;;13.20;99.90;;;;;;4991271;28;20461;-68
2022/06/15 01:42:44;;;;;;;4.80;4.40;;;13.10;99.90;;;;;;4991400;28;20470;-69
2022/06/15 01:45:15;;;;;;;4.77;4.17;;;13.10;99.90;;;;;;4991721;28;20482;-67
2022/06/15 01:47:45;;;;;;;5.27;4.33;;;13.10;99.90;;;;;;4991202;28;21001;-69
2022/06/15 01:50:16;;;;;;;4.90;4.37;;;13.10;99.90;;;;;;4991357;28;20466;-69
2022/06/15 01:52:47;;;;;;;4.37;3.97;;;13.10;99.90;;;;;;4991567;28;20473;-68
2022/06/15 01:55:19;;;;;;;6.40;4.20;;;13.10;99.90;;;;;;4991444;28;20841;-67
2022/06/15 01:57:49;;;;;;;4.90;3.90;;;13.00;99.90;;;;;;4991377;28;20482;-69
2022/06/15 02:00:18;;;;;;;4.03;3.33;;;13.00;99.90;;;;;;4990693;28;20968;-69
2022/06/15 02:02:53;;;;;;;3.97;3.67;;;13.00;99.90;;;;;;4991384;28;20529;-69
2022/06/15 02:05:29;;;;;;;5.90;4.77;;;13.00;99.90;;;;;;4991066;28;20465;-67
2022/06/15 02:08:04;;;;;;;4.00;3.70;;;13.00;99.90;;;;;;4991116;28;20489;-69
2022/06/15 02:10:37;;;;;;;4.93;4.17;;;13.00;99.90;;;;;;4990999;28;20461;-69
2022/06/15 02:13:09;;;;;;;4.13;3.73;;;13.00;99.90;;;;;;4991708;28;20468;-69
2022/06/15 02:15:38;;;;;;;4.20;3.90;;;12.90;99.90;;;;;;4991581;28;20493;-68
2022/06/15 02:18:10;;;;;;;4.80;3.90;;;12.90;99.90;;;;;;4990758;28;20486;-69
2022/06/15 02:20:42;;;;;;;4.10;3.70;;;12.90;99.90;;;;;;4990416;28;20469;-67
2022/06/15 02:23:11;;;;;;;5.33;4.60;;;12.90;99.90;;;;;;5009614;22;20521;-92
2022/06/15 02:25:43;;;;;;;4.33;3.87;;;12.80;99.90;;;;;;4992949;23;20501;-69
2022/06/15 02:28:11;;;;;;;5.17;4.30;;;12.80;99.90;;;;;;4990481;28;21105;-69
2022/06/15 02:30:39;;;;;;;5.20;4.70;;;12.80;99.90;;;;;;4990723;28;20473;-69
2022/06/15 02:33:12;;;;;;;4.90;4.30;;;12.80;99.90;;;;;;4991161;28;20961;-70
2022/06/15 02:35:39;;;;;;;5.23;4.10;;;12.70;99.90;;;;;;4991050;28;20486;-70
2022/06/15 02:38:06;;;;;;;4.30;3.97;;;12.70;99.90;;;;;;4991083;28;20500;-69
2022/06/15 02:40:32;;;;;;;6.60;4.43;;;12.70;99.90;;;;;;4989909;28;20462;-70
2022/06/15 02:43:02;;;;;;;7.43;3.90;;;12.60;99.90;;;;;;4991233;28;20969;-70
2022/06/15 02:45:34;;;;;;;4.17;3.77;;;12.60;99.90;;;;;;4990618;28;20969;-70
2022/06/15 02:48:02;;;;;;;4.93;4.00;;;12.60;99.90;;;;;;4991002;28;20572;-69
2022/06/15 02:50:35;;;;;;;4.33;3.70;;;12.60;99.90;;;;;;4990099;28;20470;-70
2022/06/15 02:53:07;;;;;;;5.13;4.63;;;12.50;99.90;;;;;;4991184;28;20466;-70
2022/06/15 02:55:35;;;;;;;5.20;3.70;;;12.50;99.90;;;;;;4990965;28;20858;-70
2022/06/15 02:58:07;;;;;;;6.33;4.20;;;12.40;99.90;;;;;;4990587;28;20493;-69
2022/06/15 03:00:35;;;;;;;5.93;4.67;;;12.40;99.90;;;;;;4990361;28;20476;-70
2022/06/15 03:03:03;;;;;;;4.50;4.10;;;12.40;99.90;;;;;;4990620;28;20469;-70
2022/06/15 03:05:31;;;;;;;4.20;3.80;;;12.30;99.90;;;;;;4990777;28;20462;-70
2022/06/15 03:07:57;;;;;;;5.00;4.43;;;12.30;99.90;;;;;;4990610;28;20486;-69
2022/06/15 03:10:25;;;;;;;5.23;4.40;;;12.30;99.90;;;;;;4990231;28;20470;-69
2022/06/15 03:12:51;;;;;;;4.60;4.10;;;12.30;99.90;;;;;;4991040;28;20466;-70
2022/06/15 03:15:18;;;;;;;4.40;4.00;;;12.30;99.90;;;;;;4990546;28;20469;-70
2022/06/15 03:17:45;;;;;;;7.20;3.87;;;12.30;99.90;;;;;;4990712;28;20497;-70
2022/06/15 03:20:12;;;;;;;6.20;4.60;;;12.30;99.90;;;;;;4991049;28;20469;-70
2022/06/15 03:22:42;;;;;;;4.37;3.97;;;12.30;99.90;;;;;;4994287;28;20477;-70
2022/06/15 03:25:09;;;;;;;5.47;3.93;;;12.30;99.90;;;;;;4994034;28;20468;-69
2022/06/15 03:27:36;;;;;;;5.37;4.17;;;12.20;99.90;;;;;;4994582;28;20482;-70
2022/06/15 03:30:06;;;;;;;5.13;4.57;;;12.20;99.90;;;;;;4993296;28;20469;-70
2022/06/15 03:32:33;;;;;;;4.27;3.87;;;12.20;99.90;;;;;;4994007;28;20462;-69
2022/06/15 03:35:00;;;;;;;5.73;4.33;;;12.10;99.90;;;;;;4994088;28;21094;-70
2022/06/15 03:37:26;;;;;;;4.83;4.37;;;12.20;99.90;;;;;;4993658;28;20577;-70
2022/06/15 03:39:55;;;;;;;5.73;4.47;;;12.20;99.90;;;;;;4993524;28;20842;-70
2022/06/15 03:42:24;;;;;;;5.50;3.70;;;12.20;99.90;;;;;;4993749;28;20493;-70
2022/06/15 03:44:53;;;;;;;4.73;4.23;;;12.20;99.90;;;;;;4994085;28;20458;-70
2022/06/15 03:47:20;;;;;;;5.07;4.30;;;12.20;99.90;;;;;;4993589;28;20493;-70
2022/06/15 03:49:48;;;;;;;4.57;4.17;;;12.20;99.90;;;;;;4992822;28;20458;-71
2022/06/15 03:52:15;;;;;;;5.17;3.77;;;12.10;99.90;;;;;;4993351;28;21035;-71
2022/06/15 03:54:41;;;;;;;6.90;4.40;;;12.20;99.90;;;;;;4993433;28;20471;-70
2022/06/15 03:57:11;;;;;;;6.10;4.23;;;12.10;99.90;;;;;;4992024;28;20536;-71
2022/06/15 03:59:37;;;;;;;5.80;4.97;;;12.10;99.90;;;;;;4989303;28;20458;-71
2022/06/15 04:02:05;;;;;;;5.83;4.33;;;12.20;99.90;;;;;;4992264;28;20458;-70
2022/06/15 04:04:32;;;;;;;4.27;3.30;;;12.20;99.90;;;;;;4991881;28;20466;-71
2022/06/15 04:06:59;;;;;;;7.00;4.13;;;12.20;99.90;;;;;;4991683;28;20502;-71
2022/06/15 04:09:25;;;;;;;4.23;3.87;;;12.30;99.90;;;;;;4991465;28;20454;-71
2022/06/15 04:12:08;;;;;;;5.30;4.40;;;12.20;99.90;;;;;;4992301;28;20470;-71
2022/06/15 04:14:37;;;;;;;8.43;4.50;;;12.30;99.90;;;;;;4991035;28;20459;-71
2022/06/15 04:17:04;;;;;;;4.77;3.63;;;12.30;99.90;;;;;;4990972;28;20985;-71
2022/06/15 04:19:33;;;;;;;5.20;3.83;;;12.40;99.90;;;;;;4990863;28;20823;-70
2022/06/15 04:22:00;;;;;;;4.57;4.17;;;12.40;99.90;;;;;;4991743;28;20968;-72
2022/06/15 04:24:29;;;;;;;4.63;4.13;;;12.50;99.90;;;;;;4992293;28;20469;-73
2022/06/15 04:26:56;;;;;;;5.13;4.10;;;12.50;99.90;;;;;;4991603;28;20486;-72
2022/06/15 04:29:24;;;;;;;4.90;4.23;;;12.60;99.90;;;;;;4992119;28;20809;-71
2022/06/15 04:31:53;;;;;;;4.60;4.20;;;12.70;99.90;;;;;;4993767;28;20462;-75
2022/06/15 04:34:20;;;;;;;6.90;4.30;;;12.70;99.90;;;;;;4992523;28;20470;-72
2022/06/15 04:36:47;;;;;;;4.53;4.13;;;12.80;99.90;;;;;;4993557;28;20497;-76
2022/06/15 04:39:14;;;;;;;5.13;4.30;;;12.80;99.90;;;;;;4997195;28;20466;-75
2022/06/15 04:41:43;;;;;;;5.70;4.37;;;12.90;99.90;;;;;;4991397;28;20502;-75
2022/06/15 04:44:12;;;;;;;4.60;4.20;;;12.90;99.90;;;;;;4994812;28;20462;-74
2022/06/15 04:46:39;;;;;;;4.30;3.90;;;13.00;99.90;;;;;;4995380;28;20488;-74
2022/06/15 04:49:08;;;;;;;6.90;4.57;;;13.10;99.90;;;;;;4994432;28;20470;-73
2022/06/15 04:51:41;;;;;;;4.50;3.90;;;13.20;99.90;;;;;;4991839;28;20461;-74
2022/06/15 04:54:14;;;;;;;4.80;4.40;;;13.30;99.90;;;;;;4991028;28;20550;-75
2022/06/15 04:56:41;;;;;;;4.37;3.97;;;13.40;99.90;;;;;;4992241;28;20498;-71
2022/06/15 04:59:07;;;;;;;5.80;4.20;;;13.50;99.90;;;;;;4991476;28;20470;-73
2022/06/15 05:01:34;;;;;;;5.03;4.30;;;13.60;99.90;;;;;;4991791;28;20466;-75
2022/06/15 05:04:03;;;;;;;4.63;4.00;;;13.70;99.90;;;;;;4991471;28;20473;-74
2022/06/15 05:06:34;;;;;;;6.50;4.70;;;13.80;99.90;;;;;;4991747;28;20573;-75
2022/06/15 05:09:01;;;;;;;5.00;4.43;;;13.90;99.90;;;;;;4993004;28;20950;-73
2022/06/15 05:11:28;;;;;;;4.97;4.27;;;14.10;99.90;;;;;;4990807;28;20477;-74
2022/06/15 05:13:55;;;;;;;5.63;4.03;;;14.20;99.90;;;;;;4991802;28;20976;-72
2022/06/15 05:16:22;;;;;;;5.10;4.60;;;14.30;99.90;;;;;;4991033;28;21015;-71
2022/06/15 05:18:48;;;;;;;5.30;4.13;;;14.40;99.90;;;;;;4991282;28;20493;-72
2022/06/15 05:21:15;;;;;;;4.40;4.00;;;14.50;99.90;;;;;;4988817;28;20542;-75
2022/06/15 05:23:43;;;;;;;5.37;4.30;;;14.70;99.90;;;;;;4991085;28;20488;-74
2022/06/15 05:26:10;;;;;;;4.97;4.57;;;14.90;99.90;;;;;;4992909;28;20485;-75
2022/06/15 05:28:38;;;;;;;5.40;4.07;;;15.00;99.90;;;;;;4992441;28;20541;-77
2022/06/15 05:31:05;;;;;;;5.33;4.27;;;15.10;99.90;;;;;;4991425;28;20928;-75
2022/06/15 05:33:33;;;;;;;6.67;4.00;;;15.20;99.90;;;;;;4991656;28;20466;-75
2022/06/15 05:36:04;;;;;;;8.10;4.77;;;15.40;99.90;;;;;;4993082;28;20459;-74
2022/06/15 05:38:30;;;;;;;4.67;4.23;;;15.50;99.90;;;;;;4991319;28;20490;-73
2022/06/15 05:40:58;;;;;;;5.50;4.40;;;15.60;99.90;;;;;;4990585;28;20466;-74
2022/06/15 05:43:25;;;;;;;4.57;4.17;;;15.80;99.90;;;;;;4989568;28;21085;-74
2022/06/15 05:45:52;;;;;;;4.33;3.93;;;15.90;99.90;;;;;;4990510;28;20470;-74
2022/06/15 05:48:18;;;;;;;4.80;3.30;;;16.10;99.90;;;;;;4991500;28;20470;-73
2022/06/15 05:50:45;;;;;;;5.60;4.13;;;16.20;99.90;;;;;;4991531;28;20500;-74
2022/06/15 05:53:12;;;;;;;4.30;3.90;;;16.30;99.90;;;;;;4992282;28;20466;-74
2022/06/15 05:55:38;;;;;;;5.80;4.80;;;16.40;99.90;;;;;;4991073;28;20469;-73
2022/06/15 05:58:07;;;;;;;7.67;4.27;;;16.50;99.90;;;;;;4991576;28;20501;-72
2022/06/15 06:00:33;;;;;;;3.90;3.50;;;16.70;99.90;;;;;;4990441;28;20553;-73
2022/06/15 06:03:01;;;;;;;4.10;3.70;;;16.80;99.90;;;;;;4990491;28;20458;-73
2022/06/15 06:05:27;;;;;;;4.00;3.67;;;16.90;99.90;;;;;;4989978;28;20466;-73
2022/06/15 06:07:56;;;;;;;4.17;3.50;;;17.00;99.90;;;;;;4990272;28;20486;-73
2022/06/15 06:10:22;;;;;;;6.40;3.87;;;17.10;99.90;;;;;;4990713;28;20584;-73
2022/06/15 06:12:49;;;;;;;3.97;3.37;;;17.30;99.90;;;;;;4991432;28;20466;-73
2022/06/15 06:15:17;;;;;;;6.47;4.17;;;17.40;99.90;;;;;;4990656;28;20466;-73
2022/06/15 06:17:44;;;;;;;4.07;3.67;;;17.60;99.90;;;;;;4989050;28;20517;-72
2022/06/15 06:20:11;;;;;;;5.80;4.00;;;17.70;99.90;;;;;;4972480;28;20463;-74
2022/06/15 06:22:38;;;;;;;5.43;3.93;;;17.80;99.90;;;;;;4974406;28;20463;-75
2022/06/15 06:25:06;;;;;;;7.47;4.30;;;17.90;99.90;;;;;;4974637;28;20553;-75
2022/06/15 06:27:33;;;;;;;4.30;3.90;;;18.00;99.90;;;;;;4972886;28;20486;-76
2022/06/15 06:30:00;;;;;;;4.07;3.70;;;18.00;99.90;;;;;;4972337;28;20471;-75
2022/06/15 06:32:28;;;;;;;7.20;3.83;;;18.10;99.90;;;;;;4972722;28;20466;-76
2022/06/15 06:34:55;;;;;;;7.33;3.60;;;18.20;99.90;;;;;;4972604;28;20478;-76
2022/06/15 06:37:23;;;;;;;4.20;3.40;;;18.30;99.90;;;;;;4972450;28;20501;-75
2022/06/15 06:39:55;;;;;;;3.80;3.43;;;18.40;99.90;;;;;;4973529;28;20459;-76
2022/06/15 06:42:22;;;;;;;3.80;3.30;;;18.50;99.90;;;;;;4974874;28;20810;-77
2022/06/15 06:44:49;;;;;;;4.90;3.43;;;18.70;99.90;;;;;;4976181;28;20470;-75
2022/06/15 06:47:15;;;;;;;3.93;3.27;;;18.80;99.90;;;;;;4973533;28;20486;-75
2022/06/15 06:49:44;;;;;;;4.63;4.23;;;18.80;99.90;;;;;;4975464;28;20471;-76
2022/06/15 06:52:11;;;;;;;5.80;3.73;;;19.00;99.90;;;;;;4977516;28;20467;-77
2022/06/15 06:54:38;;;;;;;3.70;3.20;;;19.10;99.90;;;;;;4978652;28;20459;-79
2022/06/15 06:57:05;;;;;;;4.03;3.70;;;19.20;99.90;;;;;;4978512;28;20490;-73
2022/06/15 06:59:32;;;;;;;3.47;3.17;;;19.30;99.90;;;;;;4975729;28;20474;-73
2022/06/15 07:01:58;;;;;;;5.63;3.70;;;19.30;99.90;;;;;;4976677;28;20474;-75
2022/06/15 07:04:27;;;;;;;4.23;3.07;;;19.40;99.90;;;;;;4977938;28;20462;-75
2022/06/15 07:06:58;;;;;;;3.80;3.47;;;19.50;99.90;;;;;;4977304;28;20534;-76
2022/06/15 07:09:26;;;;;;;3.90;3.50;;;19.50;99.90;;;;;;4977583;28;20466;-76
2022/06/15 07:11:52;;;;;;;3.50;3.20;;;19.60;99.90;;;;;;4978467;28;20475;-75
2022/06/15 07:14:19;;;;;;;3.90;3.17;;;19.60;99.90;;;;;;4975905;28;20466;-75
2022/06/15 07:16:46;;;;;;;4.43;3.40;;;19.60;99.90;;;;;;4977047;28;20493;-75
2022/06/15 07:19:13;;;;;;;7.10;4.10;;;19.70;99.90;;;;;;4977180;28;20478;-73
2022/06/15 07:21:41;;;;;;;5.43;3.57;;;19.80;99.90;;;;;;4975418;28;20977;-74
2022/06/15 07:24:09;;;;;;;3.07;2.77;;;19.90;99.90;;;;;;4976815;28;20966;-74
2022/06/15 07:26:42;;;;;;;4.57;3.50;;;20.10;99.90;;;;;;4976352;28;21084;-73
2022/06/15 07:29:09;;;;;;;4.07;3.77;;;20.10;99.90;;;;;;4974972;28;20469;-73
2022/06/15 07:31:38;;;;;;;7.67;4.00;;;20.20;99.90;;;;;;4980889;28;20471;-77
2022/06/15 07:34:06;;;;;;;4.40;4.00;;;20.30;99.90;;;;;;4980761;28;20459;-74
2022/06/15 07:36:34;;;;;;;3.60;3.30;;;20.40;99.90;;;;;;4978932;28;20491;-73
2022/06/15 07:39:01;;;;;;;4.77;3.50;;;20.50;99.90;;;;;;4974674;28;20487;-73
2022/06/15 07:41:29;;;;;;;6.47;3.70;;;20.70;99.90;;;;;;4974175;28;20557;-73
2022/06/15 07:43:56;;;;;;;5.70;3.70;;;20.80;99.90;;;;;;4975210;28;20459;-73
2022/06/15 07:46:24;;;;;;;4.60;3.30;;;20.90;99.90;;;;;;4975080;28;20808;-77
2022/06/15 07:51:38;;;;;;;4.20;3.60;;;21.00;99.90;;;;;;4974338;28;20554;-76
2022/06/15 07:54:08;;;;;;;3.90;3.17;;;21.10;99.90;;;;;;4974720;28;20886;-78
2022/06/15 07:56:38;;;;;;;5.70;3.60;;;21.30;99.90;;;;;;4974462;28;20487;-76
2022/06/15 07:59:04;;;;;;;3.93;3.60;;;21.30;99.90;;;;;;4974407;28;20862;-74
2022/06/15 08:01:31;;;;;;;3.63;3.33;;;21.40;99.90;;;;;;4973960;28;20477;-74
2022/06/15 08:03:58;;;;;;;4.43;3.73;;;21.50;99.90;;;;;;4973988;28;20467;-74
2022/06/15 08:06:26;;;;;;;5.37;3.20;;;21.70;99.90;;;;;;4972994;28;20490;-73
2022/06/15 08:08:53;;;;;;;4.07;3.67;;;21.80;99.90;;;;;;4973683;28;20463;-73
2022/06/15 08:11:20;;;;;;;3.30;3.00;;;22.00;99.90;;;;;;4973338;28;20813;-73
2022/06/15 08:13:48;;;;;;;3.43;3.13;;;22.10;99.90;;;;;;4974778;28;20459;-75
2022/06/15 08:16:15;;;;;;;6.30;3.60;;;22.20;99.90;;;;;;4975624;28;21021;-74
2022/06/15 08:18:45;;;;;;;4.90;3.50;;;22.20;99.90;;;;;;4983029;28;20482;-73
2022/06/15 08:21:17;;;;;;;4.27;3.43;;;22.40;99.90;;;;;;4993102;28;20553;-73
2022/06/15 08:23:46;;;;;;;3.23;2.90;;;22.40;99.90;;;;;;4993154;28;20970;-71
2022/06/15 08:26:17;;;;;;;4.50;3.17;;;22.50;99.90;;;;;;4990160;28;20490;-73
2022/06/15 08:28:48;;;;;;;3.23;2.90;;;22.60;99.90;;;;;;4989732;28;20463;-72
2022/06/15 08:31:17;;;;;;;7.73;3.87;;;22.80;99.90;;;;;;4993014;28;20520;-73
2022/06/15 08:33:44;;;;;;;3.23;2.87;;;22.90;99.90;;;;;;4993262;28;20463;-72
2022/06/15 08:36:12;;;;;;;4.30;3.50;;;23.10;99.90;;;;;;4991591;28;20508;-73
2022/06/15 08:38:41;;;;;;;5.00;3.83;;;23.20;99.90;;;;;;4991258;28;20491;-72
2022/06/15 08:41:13;;;;;;;3.93;3.57;;;23.20;99.50;;;;;;4991264;28;20504;-74
2022/06/15 08:43:55;;;;;;;3.40;3.10;;;23.30;99.90;;;;;;4992038;28;20470;-75
2022/06/15 08:46:31;;;;;;;5.47;3.63;;;23.50;99.90;;;;;;4991670;28;20577;-73
2022/06/15 08:49:11;;;;;;;3.70;3.40;;;23.60;99.90;;;;;;4991089;28;20833;-73
2022/06/15 08:51:41;;;;;;;4.13;3.43;;;23.80;99.90;;;;;;4993099;28;20458;-75
2022/06/15 08:54:12;;;;;;;4.33;3.70;;;23.80;99.70;;;;;;4993256;28;20469;-73
2022/06/15 08:56:43;;;;;;;5.60;3.23;;;23.90;99.90;;;;;;4990833;28;20494;-74
2022/06/15 08:59:15;;;;;;;4.13;3.43;;;24.10;99.90;;;;;;4992799;28;20489;-74
2022/06/15 09:01:51;;;;;;;5.00;3.37;;;24.20;99.90;;;;;;4993385;28;20888;-74
2022/06/15 09:04:28;;;;;;;3.57;3.27;;;24.30;99.90;;;;;;4992944;28;20501;-75
2022/06/15 09:07:10;;;;;;;3.60;3.30;;;24.40;99.90;;;;;;4994715;28;20478;-74
2022/06/15 09:09:50;;;;;;;3.73;3.43;;;24.60;99.90;;;;;;4991077;28;20549;-74
2022/06/15 09:15:30;;;;;;;4.53;3.10;;;24.90;99.40;;;;;;4995296;28;20552;-72
2022/06/15 09:18:01;;;;;;;5.53;3.57;;;25.10;99.90;;;;;;4991081;28;21008;-73
2022/06/15 09:20:31;;;;;;;3.80;3.50;;;25.20;99.50;;;;;;4990814;28;20469;-73
2022/06/15 09:23:05;;;;;;;4.07;3.40;;;25.40;99.90;;;;;;4991077;28;20975;-72
2022/06/15 09:25:40;;;;;;;4.60;3.70;;;25.40;98.40;;;;;;4991784;28;20540;-77
2022/06/15 09:28:11;;;;;;;3.90;3.50;;;25.50;99.90;;;;;;4993815;28;20477;-75
2022/06/15 09:30:41;;;;;;;4.23;3.23;;;25.60;99.30;;;;;;4987474;28;20458;-72
2022/06/15 09:33:16;;;;;;;4.30;3.50;;;25.80;99.30;;;;;;4989919;28;20581;-72
2022/06/15 09:35:47;;;;;;;3.80;3.30;;;26.00;99.90;;;;;;4990728;28;20466;-72
2022/06/15 09:38:15;;;;;;;4.60;2.90;;;26.20;99.20;;;;;;4990398;28;20494;-73
2022/06/15 09:40:50;;;;;;;4.27;3.53;;;26.30;97.80;;;;;;4990151;28;20462;-73
2022/06/15 09:43:28;;;;;;;6.37;3.47;;;26.50;96.60;;;;;;4990663;28;20557;-73
2022/06/15 09:46:06;;;;;;;5.13;3.40;;;26.50;95.80;;;;;;4990566;28;20466;-73
2022/06/15 09:48:45;;;;;;;3.90;3.40;;;26.60;96.00;;;;;;4990258;28;20462;-73
2022/06/15 09:51:19;;;;;;;3.80;3.40;;;26.80;98.10;;;;;;4989931;28;20466;-73
2022/06/15 09:53:59;;;;;;;4.17;3.30;;;27.00;97.20;;;;;;4990674;28;20490;-73
2022/06/15 09:56:26;;;;;;;4.00;3.40;;;27.30;97.10;;;;;;4990643;28;20481;-73
2022/06/15 09:58:56;;;;;;;4.47;3.30;;;27.40;98.30;;;;;;4990869;28;20496;-73
2022/06/15 10:01:25;;;;;;;3.10;2.80;;;27.70;96.30;;;;;;4990434;28;20470;-72
2022/06/15 10:03:55;;;;;;;4.97;3.27;;;27.80;96.40;;;;;;4991412;28;21026;-74
2022/06/15 10:06:25;;;;;;;3.80;3.10;;;28.00;96.50;;;;;;4990351;28;20490;-72
2022/06/15 10:08:53;;;;;;;5.00;3.20;;;28.10;95.20;;;;;;4990252;28;20462;-73
2022/06/15 10:11:25;;;;;;;6.60;3.47;;;28.10;96.20;;;;;;4989938;28;20467;-72
2022/06/15 10:13:52;;;;;;;4.00;3.27;;;28.10;98.10;;;;;;4991001;28;20850;-73
2022/06/15 10:16:24;;;;;;;3.03;2.73;;;28.30;98.10;;;;;;4989970;28;20499;-73
2022/06/15 10:18:54;;;;;;;3.93;3.53;;;28.30;94.90;;;;;;4989828;28;20497;-73
2022/06/15 10:21:24;;;;;;;3.90;3.17;;;28.40;97.30;;;;;;4989870;28;20466;-73
2022/06/15 10:23:57;;;;;;;5.50;3.47;;;28.40;96.80;;;;;;4990266;28;20475;-73
2022/06/15 10:26:32;;;;;;;4.83;3.47;;;28.40;95.60;;;;;;4990421;28;20490;-73
2022/06/15 10:29:20;;;;;;;4.17;3.00;;;28.50;95.80;;;;;;4991423;28;20466;-72
2022/06/15 10:32:00;;;;;;;3.40;3.10;;;28.50;96.70;;;;;;4994064;28;20477;-73
2022/06/15 10:34:31;;;;;;;3.50;3.20;;;28.60;93.40;;;;;;4994074;28;20470;-73
2022/06/15 10:37:00;;;;;;;6.30;3.60;;;28.60;93.40;;;;;;4994406;28;21013;-73
2022/06/15 10:39:30;;;;;;;3.47;3.17;;;28.70;95.70;;;;;;4993665;28;20490;-72
2022/06/15 10:42:05;;;;;;;5.13;3.47;;;28.80;93.30;;;;;;4995208;28;20934;-72
2022/06/15 10:44:35;;;;;;;3.60;3.30;;;28.60;93.70;;;;;;4994832;28;20462;-73
2022/06/15 10:47:05;;;;;;;3.70;3.40;;;28.60;93.10;;;;;;4995664;28;20845;-73
2022/06/15 10:49:36;;;;;;;5.70;3.60;;;28.60;91.30;;;;;;4994839;28;20547;-74
2022/06/15 10:52:15;;;;;;;5.93;3.13;;;28.60;93.30;;;;;;4995267;28;20492;-74
2022/06/15 11:03:12;;;;;;;3.40;3.03;;;29.40;93.50;;;;;;4994237;28;20945;-73
2022/06/15 11:05:40;;;;;;;4.50;3.40;;;29.50;93.60;;;;;;4994112;28;20486;-73
2022/06/15 11:08:15;;;;;;;5.13;3.53;;;29.50;93.40;;;;;;4993476;28;20484;-76
2022/06/15 11:10:44;;;;;;;5.53;3.50;;;29.50;92.40;;;;;;4993418;28;20465;-76
2022/06/15 11:13:29;;;;;;;4.50;3.30;;;29.70;94.80;;;;;;4994128;28;20464;-74
2022/06/15 11:18:44;;;;;;;6.67;3.50;;;30.00;93.20;;;;;;4993952;28;20564;-75
2022/06/15 11:21:17;;;;;;;3.40;3.10;;;30.00;92.20;;;;;;4993099;28;20470;-80
2022/06/15 11:23:55;;;;;;;3.10;2.77;;;30.00;92.40;;;;;;4994918;28;20847;-76
2022/06/15 11:29:36;;;;;;;3.73;3.43;;;30.30;93.20;;;;;;4994131;28;20940;-76
2022/06/15 11:32:13;;;;;;;3.43;3.13;;;30.50;91.90;;;;;;4994559;28;20473;-75
2022/06/15 11:34:47;;;;;;;3.70;3.30;;;30.60;90.90;;;;;;4994946;28;20482;-75
2022/06/15 11:37:21;;;;;;;3.47;3.20;;;30.50;88.40;;;;;;4994825;28;20488;-73
2022/06/15 11:39:55;;;;;;;3.87;3.27;;;30.30;86.70;;;;;;4993660;28;20562;-79
2022/06/15 11:42:23;;;;;;;3.80;3.50;;;30.20;91.30;;;;;;4993164;28;20468;-77
2022/06/15 11:44:51;;;;;;;4.17;3.37;;;30.40;91.30;;;;;;4994030;28;20475;-76
2022/06/15 11:47:27;;;;;;;4.40;3.43;;;30.60;92.40;;;;;;4993731;28;20488;-76
2022/06/15 11:49:59;;;;;;;4.70;3.77;;;30.70;88.90;;;;;;4994519;28;20459;-77
2022/06/15 11:52:41;;;;;;;3.37;3.07;;;30.80;90.00;;;;;;4993575;28;20474;-76
2022/06/15 11:55:28;;;;;;;3.80;2.90;;;30.60;85.60;;;;;;4990658;28;20456;-76
2022/06/15 11:58:11;;;;;;;3.40;3.10;;;30.60;91.20;;;;;;4994033;28;20486;-77
2022/06/15 12:00:43;;;;;;;4.07;3.40;;;30.70;90.10;;;;;;4990374;28;20460;-74
2022/06/15 12:03:36;;;;;;;4.97;2.93;;;30.90;90.80;;;;;;4988921;28;20458;-74
2022/06/15 12:06:07;;;;;;;4.23;3.50;;;30.90;90.20;;;;;;4992914;28;20475;-75
2022/06/15 12:08:42;;;;;;;3.27;2.97;;;31.10;90.30;;;;;;4993571;28;20470;-76
2022/06/15 12:14:13;;;;;;;3.23;2.80;;;31.20;90.10;;;;;;4994363;28;20950;-75
2022/06/15 12:16:46;;;;;;;3.50;2.80;;;31.60;91.30;;;;;;4993423;28;20519;-75
2022/06/15 12:19:20;;;;;;;3.37;3.03;;;31.70;86.30;;;;;;4992253;28;20493;-79
2022/06/15 12:21:57;;;;;;;3.70;3.43;;;31.80;85.60;;;;;;4992833;28;20468;-75
2022/06/15 12:24:30;;;;;;;6.83;3.00;;;31.90;90.00;;;;;;4987179;28;20463;-74
2022/06/15 12:27:04;;;;;;;7.63;3.20;;;31.90;85.40;;;;;;4989691;28;20489;-76
2022/06/15 12:29:40;;;;;;;3.87;3.57;;;31.80;90.30;;;;;;4992957;28;20456;-77
2022/06/15 12:32:32;;;;;;;3.57;3.10;;;31.90;88.50;;;;;;4992418;28;20518;-75
2022/06/15 12:35:25;;;;;;;3.80;2.80;;;32.10;90.90;;;;;;4995126;28;20469;-77
2022/06/15 12:37:57;;;;;;;3.93;3.00;;;32.10;89.50;;;;;;4993186;28;20484;-76
2022/06/15 12:40:30;;;;;;;5.57;3.73;;;32.20;90.50;;;;;;4989582;28;20493;-75
2022/06/15 12:43:07;;;;;;;4.60;3.70;;;32.20;83.50;;;;;;4992767;28;20591;-73
2022/06/15 12:45:38;;;;;;;4.60;3.17;;;32.20;83.00;;;;;;4992535;28;21095;-74
2022/06/15 12:48:14;;;;;;;5.00;3.10;;;32.40;86.10;;;;;;4992367;28;20489;-74
2022/06/15 12:50:50;;;;;;;4.20;3.80;;;32.40;86.80;;;;;;4991519;28;20469;-75
2022/06/15 12:53:30;;;;;;;4.43;3.17;;;32.40;82.70;;;;;;4991017;28;20470;-75
2022/06/15 12:56:08;;;;;;;4.33;3.00;;;32.30;80.90;;;;;;4992241;28;20516;-73
2022/06/15 12:58:51;;;;;;;4.70;3.10;;;32.30;87.30;;;;;;4990790;28;20465;-73
2022/06/15 13:01:21;;;;;;;3.77;3.40;;;32.10;86.80;;;;;;4990832;28;20557;-74
2022/06/15 13:04:04;;;;;;;4.07;3.23;;;32.00;87.60;;;;;;4992187;28;20476;-73
2022/06/15 13:06:33;;;;;;;3.93;3.10;;;32.10;84.80;;;;;;4989882;28;21296;-74
2022/06/15 13:09:08;;;;;;;3.27;2.97;;;32.20;83.60;;;;;;4991650;28;20477;-74
2022/06/15 13:11:51;;;;;;;3.60;3.40;;;32.00;79.20;;;;;;4991922;28;20495;-74
2022/06/15 13:14:20;;;;;;;4.33;3.60;;;31.60;82.60;;;;;;4991446;28;20520;-74
2022/06/15 13:17:01;;;;;;;3.57;3.20;;;31.40;82.40;;;;;;4991855;28;20522;-74
2022/06/15 13:19:31;;;;;;;4.00;3.10;;;31.30;85.50;;;;;;4990400;28;21292;-74
2022/06/15 13:22:17;;;;;;;3.40;3.10;;;31.20;86.00;;;;;;4993071;28;20662;-78
2022/06/15 13:24:57;;;;;;;3.17;2.90;;;31.30;84.10;;;;;;4991115;28;20471;-75
2022/06/15 13:27:32;;;;;;;4.43;3.20;;;31.40;86.50;;;;;;4990785;28;20506;-75
2022/06/15 13:30:25;;;;;;;3.53;3.10;;;31.50;86.00;;;;;;4991447;28;20472;-75